sensor_id;sensor_type;location;lat;lon;timestamp;pressure;altitude;pressure_sealevel;temperature;humidity
21760;BME280;11041;50.854;20.580;2022-08-19T00:01:57;98385.72;;;19.21;86.29
21760;BME280;11041;50.854;20.580;2022-08-19T00:04:30;98369.78;;;19.18;86.34
21760;BME280;11041;50.854;20.580;2022-08-19T00:06:58;98375.78;;;19.20;86.30
21760;BME280;11041;50.854;20.580;2022-08-19T00:09:27;98363.38;;;19.14;86.33
21760;BME280;11041;50.854;20.580;2022-08-19T00:11:55;98359.41;;;19.15;86.79
21760;BME280;11041;50.854;20.580;2022-08-19T00:14:25;98363.03;;;19.19;86.71
21760;BME280;11041;50.854;20.580;2022-08-19T00:16:54;98356.28;;;19.20;86.92
21760;BME280;11041;50.854;20.580;2022-08-19T00:19:23;98365.47;;;19.24;87.07
21760;BME280;11041;50.854;20.580;2022-08-19T00:21:51;98355.50;;;19.23;87.16
21760;BME280;11041;50.854;20.580;2022-08-19T00:24:17;98346.38;;;19.26;87.00
21760;BME280;11041;50.854;20.580;2022-08-19T00:26:45;98347.22;;;19.27;86.93
21760;BME280;11041;50.854;20.580;2022-08-19T00:29:15;98348.41;;;19.29;87.08
21760;BME280;11041;50.854;20.580;2022-08-19T00:31:43;98346.50;;;19.37;86.91
21760;BME280;11041;50.854;20.580;2022-08-19T00:34:12;98345.28;;;19.34;86.63
21760;BME280;11041;50.854;20.580;2022-08-19T00:36:41;98335.31;;;19.33;86.65
21760;BME280;11041;50.854;20.580;2022-08-19T00:39:09;98352.91;;;19.41;86.49
21760;BME280;11041;50.854;20.580;2022-08-19T00:41:38;98351.69;;;19.39;86.67
21760;BME280;11041;50.854;20.580;2022-08-19T00:44:24;98352.09;;;19.41;86.49
21760;BME280;11041;50.854;20.580;2022-08-19T00:46:54;98348.50;;;19.36;86.52
21760;BME280;11041;50.854;20.580;2022-08-19T00:49:47;98358.06;;;19.39;86.39
21760;BME280;11041;50.854;20.580;2022-08-19T00:52:28;98349.31;;;19.41;86.39
21760;BME280;11041;50.854;20.580;2022-08-19T00:54:58;98350.06;;;19.37;86.59
21760;BME280;11041;50.854;20.580;2022-08-19T00:57:35;98347.28;;;19.37;86.54
21760;BME280;11041;50.854;20.580;2022-08-19T01:00:12;98350.91;;;19.42;86.53
21760;BME280;11041;50.854;20.580;2022-08-19T01:02:42;98353.28;;;19.40;86.62
21760;BME280;11041;50.854;20.580;2022-08-19T01:05:21;98346.13;;;19.39;86.73
21760;BME280;11041;50.854;20.580;2022-08-19T01:07:50;98352.50;;;19.43;86.48
21760;BME280;11041;50.854;20.580;2022-08-19T01:10:24;98346.94;;;19.43;86.80
21760;BME280;11041;50.854;20.580;2022-08-19T01:12:52;98345.34;;;19.42;86.60
21760;BME280;11041;50.854;20.580;2022-08-19T01:15:28;98350.16;;;19.45;86.52
21760;BME280;11041;50.854;20.580;2022-08-19T01:18:00;98348.16;;;19.45;86.64
21760;BME280;11041;50.854;20.580;2022-08-19T01:20:27;98349.72;;;19.43;86.45
21760;BME280;11041;50.854;20.580;2022-08-19T01:22:58;98346.56;;;19.44;86.47
21760;BME280;11041;50.854;20.580;2022-08-19T01:25:48;98354.94;;;19.48;86.63
21760;BME280;11041;50.854;20.580;2022-08-19T01:28:26;98347.78;;;19.47;86.42
21760;BME280;11041;50.854;20.580;2022-08-19T01:30:54;98345.38;;;19.45;86.61
21760;BME280;11041;50.854;20.580;2022-08-19T01:33:21;98348.94;;;19.42;86.37
21760;BME280;11041;50.854;20.580;2022-08-19T01:35:48;98334.97;;;19.39;86.45
21760;BME280;11041;50.854;20.580;2022-08-19T01:38:26;98350.16;;;19.45;86.59
21760;BME280;11041;50.854;20.580;2022-08-19T01:40:54;98351.72;;;19.46;86.43
21760;BME280;11041;50.854;20.580;2022-08-19T01:43:21;98335.00;;;19.42;86.39
21760;BME280;11041;50.854;20.580;2022-08-19T01:45:48;98332.59;;;19.41;86.49
21760;BME280;11041;50.854;20.580;2022-08-19T01:48:15;98320.22;;;19.38;86.45
21760;BME280;11041;50.854;20.580;2022-08-19T01:50:41;98330.22;;;19.43;86.31
21760;BME280;11041;50.854;20.580;2022-08-19T01:53:12;98325.44;;;19.40;86.50
21760;BME280;11041;50.854;20.580;2022-08-19T01:55:41;98317.44;;;19.38;86.32
21760;BME280;11041;50.854;20.580;2022-08-19T01:58:23;98320.66;;;19.40;86.32
21760;BME280;11041;50.854;20.580;2022-08-19T02:00:51;98317.06;;;19.40;86.60
21760;BME280;11041;50.854;20.580;2022-08-19T02:03:17;98312.22;;;19.33;86.42
21760;BME280;11041;50.854;20.580;2022-08-19T02:05:44;98322.59;;;19.36;86.54
21760;BME280;11041;50.854;20.580;2022-08-19T02:08:12;98311.84;;;19.34;86.43
21760;BME280;11041;50.854;20.580;2022-08-19T02:10:44;98313.84;;;19.34;86.57
21760;BME280;11041;50.854;20.580;2022-08-19T02:13:12;98311.81;;;19.31;86.53
21760;BME280;11041;50.854;20.580;2022-08-19T02:15:40;98315.75;;;19.26;86.87
21760;BME280;11041;50.854;20.580;2022-08-19T02:18:07;98316.56;;;19.27;86.64
21760;BME280;11041;50.854;20.580;2022-08-19T02:20:36;98315.75;;;19.26;86.88
21760;BME280;11041;50.854;20.580;2022-08-19T02:23:04;98315.75;;;19.26;86.58
21760;BME280;11041;50.854;20.580;2022-08-19T02:25:31;98314.94;;;19.26;86.97
21760;BME280;11041;50.854;20.580;2022-08-19T02:27:57;98309.34;;;19.22;87.18
21760;BME280;11041;50.854;20.580;2022-08-19T02:30:25;98300.59;;;19.24;87.06
21760;BME280;11041;50.854;20.580;2022-08-19T02:32:52;98313.72;;;19.20;86.96
21760;BME280;11041;50.854;20.580;2022-08-19T02:35:20;98306.94;;;19.21;87.06
21760;BME280;11041;50.854;20.580;2022-08-19T02:37:48;98294.16;;;19.16;87.29
21760;BME280;11041;50.854;20.580;2022-08-19T02:40:34;98302.16;;;19.21;87.14
21760;BME280;11041;50.854;20.580;2022-08-19T02:43:05;98305.38;;;19.23;87.07
21760;BME280;11041;50.854;20.580;2022-08-19T02:45:37;98309.34;;;19.22;87.10
21760;BME280;11041;50.854;20.580;2022-08-19T02:48:05;98305.00;;;19.25;87.05
21760;BME280;11041;50.854;20.580;2022-08-19T02:50:32;98297.38;;;19.22;87.00
21760;BME280;11041;50.854;20.580;2022-08-19T02:52:59;98287.03;;;19.19;86.89
21760;BME280;11041;50.854;20.580;2022-08-19T02:55:26;98299.81;;;19.23;86.96
21760;BME280;11041;50.854;20.580;2022-08-19T02:57:52;98293.38;;;19.19;87.11
21760;BME280;11041;50.854;20.580;2022-08-19T03:00:19;98301.81;;;19.26;87.15
21760;BME280;11041;50.854;20.580;2022-08-19T03:02:45;98302.16;;;19.21;87.06
21760;BME280;11041;50.854;20.580;2022-08-19T03:05:12;98311.78;;;19.27;87.02
21760;BME280;11041;50.854;20.580;2022-08-19T03:07:39;98308.59;;;19.25;87.00
21760;BME280;11041;50.854;20.580;2022-08-19T03:10:07;98311.78;;;19.27;86.93
21760;BME280;11041;50.854;20.580;2022-08-19T03:12:37;98304.59;;;19.26;87.36
21760;BME280;11041;50.854;20.580;2022-08-19T03:15:09;98303.00;;;19.25;87.04
21760;BME280;11041;50.854;20.580;2022-08-19T03:17:36;98308.94;;;19.24;86.81
21760;BME280;11041;50.854;20.580;2022-08-19T03:20:04;98307.81;;;19.28;87.02
21760;BME280;11041;50.854;20.580;2022-08-19T03:22:31;98309.78;;;19.28;86.96
21760;BME280;11041;50.854;20.580;2022-08-19T03:24:58;98300.22;;;19.25;86.77
21760;BME280;11041;50.854;20.580;2022-08-19T03:27:25;98318.16;;;19.28;86.87
21760;BME280;11041;50.854;20.580;2022-08-19T03:29:52;98308.59;;;19.25;87.00
21760;BME280;11041;50.854;20.580;2022-08-19T03:32:19;98306.22;;;19.27;86.84
21760;BME280;11041;50.854;20.580;2022-08-19T03:34:46;98309.41;;;19.29;86.91
21760;BME280;11041;50.854;20.580;2022-08-19T03:37:13;98313.03;;;19.33;86.91
21760;BME280;11041;50.854;20.580;2022-08-19T03:39:41;98303.44;;;19.31;86.77
21760;BME280;11041;50.854;20.580;2022-08-19T03:42:09;98312.66;;;19.35;86.89
21760;BME280;11041;50.854;20.580;2022-08-19T03:44:36;98324.63;;;19.39;86.88
21760;BME280;11041;50.854;20.580;2022-08-19T03:47:05;98322.63;;;19.40;86.79
21760;BME280;11041;50.854;20.580;2022-08-19T03:49:33;98317.84;;;19.36;86.86
21760;BME280;11041;50.854;20.580;2022-08-19T03:52:01;98338.16;;;19.41;86.87
21760;BME280;11041;50.854;20.580;2022-08-19T03:54:29;98337.78;;;19.42;86.86
21760;BME280;11041;50.854;20.580;2022-08-19T03:56:57;98338.56;;;19.43;86.93
21760;BME280;11041;50.854;20.580;2022-08-19T03:59:32;98336.59;;;19.43;87.08
21760;BME280;11041;50.854;20.580;2022-08-19T04:02:05;98340.59;;;19.46;87.06
21760;BME280;11041;50.854;20.580;2022-08-19T04:04:33;98341.78;;;19.45;87.05
21760;BME280;11041;50.854;20.580;2022-08-19T04:06:59;98352.56;;;19.46;86.84
21760;BME280;11041;50.854;20.580;2022-08-19T04:09:26;98349.41;;;19.51;86.80
21760;BME280;11041;50.854;20.580;2022-08-19T04:11:58;98349.84;;;19.53;87.07
21760;BME280;11041;50.854;20.580;2022-08-19T04:14:29;98357.38;;;19.53;87.15
21760;BME280;11041;50.854;20.580;2022-08-19T04:17:02;98355.84;;;19.59;87.00
21760;BME280;11041;50.854;20.580;2022-08-19T04:19:35;98367.03;;;19.63;86.84
21760;BME280;11041;50.854;20.580;2022-08-19T04:22:03;98373.00;;;19.65;86.87
21760;BME280;11041;50.854;20.580;2022-08-19T04:24:30;98368.28;;;19.69;86.79
21760;BME280;11041;50.854;20.580;2022-08-19T04:26:59;98372.66;;;19.70;86.85
21760;BME280;11041;50.854;20.580;2022-08-19T04:29:27;98371.16;;;19.76;86.59
21760;BME280;11041;50.854;20.580;2022-08-19T04:31:56;98354.41;;;19.72;86.55
21760;BME280;11041;50.854;20.580;2022-08-19T04:34:26;98379.19;;;19.85;86.42
21760;BME280;11041;50.854;20.580;2022-08-19T04:36:57;98364.06;;;19.86;86.36
21760;BME280;11041;50.854;20.580;2022-08-19T04:39:30;98360.53;;;19.92;86.19
21760;BME280;11041;50.854;20.580;2022-08-19T04:42:17;98355.00;;;19.99;85.92
21760;BME280;11041;50.854;20.580;2022-08-19T04:45:09;98351.84;;;20.05;85.80
21760;BME280;11041;50.854;20.580;2022-08-19T04:47:42;98353.88;;;20.11;85.93
21760;BME280;11041;50.854;20.580;2022-08-19T04:50:11;98342.72;;;20.15;85.99
21760;BME280;11041;50.854;20.580;2022-08-19T04:52:39;98331.59;;;20.18;86.00
21760;BME280;11041;50.854;20.580;2022-08-19T04:55:12;98354.41;;;20.31;85.70
21760;BME280;11041;50.854;20.580;2022-08-19T04:57:38;98341.28;;;20.39;85.63
21760;BME280;11041;50.854;20.580;2022-08-19T05:00:09;98343.72;;;20.48;85.32
21760;BME280;11041;50.854;20.580;2022-08-19T05:02:36;98344.94;;;20.54;84.63
21760;BME280;11041;50.854;20.580;2022-08-19T05:05:04;98350.19;;;20.62;84.68
21760;BME280;11041;50.854;20.580;2022-08-19T05:07:33;98329.06;;;20.61;84.41
21760;BME280;11041;50.854;20.580;2022-08-19T05:10:01;98332.69;;;20.73;84.24
21760;BME280;11041;50.854;20.580;2022-08-19T05:12:27;98321.53;;;20.80;83.96
21760;BME280;11041;50.854;20.580;2022-08-19T05:14:56;98335.13;;;20.92;83.72
21760;BME280;11041;50.854;20.580;2022-08-19T05:17:24;98329.56;;;20.96;83.72
21760;BME280;11041;50.854;20.580;2022-08-19T05:19:51;98336.00;;;21.07;83.45
21760;BME280;11041;50.854;20.580;2022-08-19T05:22:36;98328.41;;;21.15;83.09
21760;BME280;11041;50.854;20.580;2022-08-19T05:25:15;98343.19;;;21.22;82.83
21760;BME280;11041;50.854;20.580;2022-08-19T05:27:45;98345.22;;;21.29;82.87
21760;BME280;11041;50.854;20.580;2022-08-19T05:30:12;98341.22;;;21.30;81.82
21760;BME280;11041;50.854;20.580;2022-08-19T05:32:40;98358.03;;;21.48;81.54
21760;BME280;11041;50.854;20.580;2022-08-19T05:35:08;98346.03;;;21.55;81.50
21760;BME280;11041;50.854;20.580;2022-08-19T05:37:36;98350.06;;;21.61;80.09
21760;BME280;11041;50.854;20.580;2022-08-19T05:40:04;98353.66;;;21.72;79.56
21760;BME280;11041;50.854;20.580;2022-08-19T05:42:31;98352.84;;;21.75;79.20
21760;BME280;11041;50.854;20.580;2022-08-19T05:44:58;98358.44;;;21.89;79.24
21760;BME280;11041;50.854;20.580;2022-08-19T05:47:25;98349.63;;;21.91;79.29
21760;BME280;11041;50.854;20.580;2022-08-19T05:49:52;98352.81;;;22.00;78.74
21760;BME280;11041;50.854;20.580;2022-08-19T05:52:19;98358.81;;;22.06;78.47
21760;BME280;11041;50.854;20.580;2022-08-19T05:54:46;98360.81;;;22.16;77.99
21760;BME280;11041;50.854;20.580;2022-08-19T05:57:15;98355.22;;;22.23;77.65
21760;BME280;11041;50.854;20.580;2022-08-19T05:59:42;98352.00;;;22.28;77.56
21760;BME280;11041;50.854;20.580;2022-08-19T06:02:08;98354.00;;;22.35;77.73
21760;BME280;11041;50.854;20.580;2022-08-19T06:04:35;98354.00;;;22.35;77.40
21760;BME280;11041;50.854;20.580;2022-08-19T06:07:01;98365.56;;;22.41;77.35
21760;BME280;11041;50.854;20.580;2022-08-19T06:09:29;98376.75;;;22.48;76.79
21760;BME280;11041;50.854;20.580;2022-08-19T06:11:58;98382.31;;;22.55;76.50
21760;BME280;11041;50.854;20.580;2022-08-19T06:14:30;98375.91;;;22.58;77.03
21760;BME280;11041;50.854;20.580;2022-08-19T06:17:03;98371.91;;;22.63;75.92
21760;BME280;11041;50.854;20.580;2022-08-19T06:19:30;98368.69;;;22.71;75.92
21760;BME280;11041;50.854;20.580;2022-08-19T06:21:59;98385.84;;;22.81;75.50
21760;BME280;11041;50.854;20.580;2022-08-19T06:24:29;98391.03;;;22.86;75.47
21760;BME280;11041;50.854;20.580;2022-08-19T06:26:58;98392.19;;;22.92;75.38
21760;BME280;11041;50.854;20.580;2022-08-19T06:29:26;98386.59;;;22.95;75.53
21760;BME280;11041;50.854;20.580;2022-08-19T06:31:57;98395.78;;;23.07;74.87
21760;BME280;11041;50.854;20.580;2022-08-19T06:34:25;98392.16;;;23.10;74.36
21760;BME280;11041;50.854;20.580;2022-08-19T06:36:55;98387.69;;;23.16;73.73
21760;BME280;11041;50.854;20.580;2022-08-19T06:39:26;98382.06;;;23.23;73.46
21760;BME280;11041;50.854;20.580;2022-08-19T06:41:57;98382.84;;;23.31;73.81
21760;BME280;11041;50.854;20.580;2022-08-19T06:44:28;98387.56;;;23.41;74.04
21760;BME280;11041;50.854;20.580;2022-08-19T06:46:55;98386.34;;;23.46;73.59
21760;BME280;11041;50.854;20.580;2022-08-19T06:49:23;98393.09;;;23.55;73.42
21760;BME280;11041;50.854;20.580;2022-08-19T06:51:52;98383.03;;;23.58;72.41
21760;BME280;11041;50.854;20.580;2022-08-19T06:54:19;98380.19;;;23.65;72.20
21760;BME280;11041;50.854;20.580;2022-08-19T06:56:46;98383.34;;;23.71;72.00
21760;BME280;11041;50.854;20.580;2022-08-19T06:59:18;98379.34;;;23.72;71.80
21760;BME280;11041;50.854;20.580;2022-08-19T07:01:49;98384.88;;;23.83;72.17
21760;BME280;11041;50.854;20.580;2022-08-19T07:04:24;98382.81;;;23.90;72.72
21760;BME280;11041;50.854;20.580;2022-08-19T07:06:59;98376.41;;;23.93;71.08
21760;BME280;11041;50.854;20.580;2022-08-19T07:09:27;98380.31;;;24.03;70.53
21760;BME280;11041;50.854;20.580;2022-08-19T07:11:55;98378.25;;;24.11;70.71
21760;BME280;11041;50.854;20.580;2022-08-19T07:14:27;98374.53;;;24.21;70.95
21760;BME280;11041;50.854;20.580;2022-08-19T07:16:56;98380.44;;;24.30;71.28
21760;BME280;11041;50.854;20.580;2022-08-19T07:19:26;98365.16;;;24.35;70.66
21760;BME280;11041;50.854;20.580;2022-08-19T07:21:55;98361.84;;;24.43;70.65
21760;BME280;11041;50.854;20.580;2022-08-19T07:24:25;98358.97;;;24.51;68.95
21760;BME280;11041;50.854;20.580;2022-08-19T07:26:56;98368.47;;;24.64;68.69
21760;BME280;11041;50.854;20.580;2022-08-19T07:29:24;98364.41;;;24.69;67.72
21760;BME280;11041;50.854;20.580;2022-08-19T07:31:52;98361.47;;;24.79;66.46
21760;BME280;11041;50.854;20.580;2022-08-19T07:34:23;98368.59;;;24.87;65.88
21760;BME280;11041;50.854;20.580;2022-08-19T07:36:50;98370.09;;;24.96;66.19
21760;BME280;11041;50.854;20.580;2022-08-19T07:39:27;98373.66;;;25.00;67.22
21760;BME280;11041;50.854;20.580;2022-08-19T07:41:57;98379.56;;;25.09;66.24
21760;BME280;11041;50.854;20.580;2022-08-19T07:44:25;98385.06;;;25.20;64.66
21760;BME280;11041;50.854;20.580;2022-08-19T07:46:56;98392.59;;;25.26;64.59
21760;BME280;11041;50.854;20.580;2022-08-19T07:49:24;98386.50;;;25.32;64.13
21760;BME280;11041;50.854;20.580;2022-08-19T07:54:24;98385.06;;;25.47;62.70
21760;BME280;11041;50.854;20.580;2022-08-19T07:56:51;98391.34;;;25.58;63.55
21760;BME280;11041;50.854;20.580;2022-08-19T07:59:20;98374.34;;;25.65;63.66
21760;BME280;11041;50.854;20.580;2022-08-19T08:01:48;98390.63;;;25.78;63.80
21760;BME280;11041;50.854;20.580;2022-08-19T08:04:17;98387.31;;;25.83;62.06
21760;BME280;11041;50.854;20.580;2022-08-19T08:07:04;98388.41;;;25.92;63.39
21760;BME280;11041;50.854;20.580;2022-08-19T08:09:52;98408.69;;;26.07;62.84
21760;BME280;11041;50.854;20.580;2022-08-19T08:12:27;98399.75;;;26.12;62.51
21760;BME280;11041;50.854;20.580;2022-08-19T08:15:01;98408.06;;;26.20;61.66
21760;BME280;11041;50.854;20.580;2022-08-19T08:17:29;98398.69;;;26.26;62.01
21760;BME280;11041;50.854;20.580;2022-08-19T08:19:57;98400.94;;;26.35;62.27
21760;BME280;11041;50.854;20.580;2022-08-19T08:22:24;98409.22;;;26.46;60.60
21760;BME280;11041;50.854;20.580;2022-08-19T08:25:15;98404.19;;;26.57;60.71
21760;BME280;11041;50.854;20.580;2022-08-19T08:27:44;98401.31;;;26.61;60.40
21760;BME280;11041;50.854;20.580;2022-08-19T08:30:31;98379.47;;;26.65;58.83
21760;BME280;11041;50.854;20.580;2022-08-19T08:33:03;98394.16;;;26.76;59.61
21760;BME280;11041;50.854;20.580;2022-08-19T08:35:30;98387.59;;;26.83;60.22
21760;BME280;11041;50.854;20.580;2022-08-19T08:37:57;98397.47;;;26.91;60.11
21760;BME280;11041;50.854;20.580;2022-08-19T08:40:38;98398.84;;;27.03;58.86
21760;BME280;11041;50.854;20.580;2022-08-19T08:43:20;98397.13;;;27.09;58.15
21760;BME280;11041;50.854;20.580;2022-08-19T08:46:10;98395.28;;;27.18;57.60
21760;BME280;11041;50.854;20.580;2022-08-19T08:48:54;98398.84;;;27.23;57.33
21760;BME280;11041;50.854;20.580;2022-08-19T08:51:46;98407.88;;;27.34;56.60
21760;BME280;11041;50.854;20.580;2022-08-19T08:54:18;98417.69;;;27.46;56.20
21760;BME280;11041;50.854;20.580;2022-08-19T08:56:49;98412.69;;;27.53;56.40
21760;BME280;11041;50.854;20.580;2022-08-19T08:59:29;98423.72;;;27.64;55.06
21760;BME280;11041;50.854;20.580;2022-08-19T09:01:59;98427.19;;;27.72;55.71
21760;BME280;11041;50.854;20.580;2022-08-19T09:04:26;98428.56;;;27.83;55.18
21760;BME280;11041;50.854;20.580;2022-08-19T09:09:52;98426.88;;;28.02;54.49
21760;BME280;11041;50.854;20.580;2022-08-19T09:12:52;98421.91;;;28.07;54.63
21760;BME280;11041;50.854;20.580;2022-08-19T09:15:33;98418.13;;;28.13;53.97
21760;BME280;11041;50.854;20.580;2022-08-19T09:18:03;98414.41;;;28.16;53.37
21760;BME280;11041;50.854;20.580;2022-08-19T09:20:31;98411.06;;;28.21;53.97
21760;BME280;11041;50.854;20.580;2022-08-19T09:22:58;98411.69;;;28.29;53.90
21760;BME280;11041;50.854;20.580;2022-08-19T09:25:25;98409.09;;;28.35;53.97
21760;BME280;11041;50.854;20.580;2022-08-19T09:27:54;98410.50;;;28.43;54.33
21760;BME280;11041;50.854;20.580;2022-08-19T09:30:27;98414.06;;;28.47;55.51
21760;BME280;11041;50.854;20.580;2022-08-19T09:32:55;98406.97;;;28.55;54.39
21760;BME280;11041;50.854;20.580;2022-08-19T09:35:27;98412.97;;;28.57;53.59
21760;BME280;11041;50.854;20.580;2022-08-19T09:37:57;98415.72;;;28.61;52.99
21760;BME280;11041;50.854;20.580;2022-08-19T09:40:30;98424.69;;;28.72;52.98
21760;BME280;11041;50.854;20.580;2022-08-19T09:42:58;98415.31;;;28.75;53.34
21760;BME280;11041;50.854;20.580;2022-08-19T09:45:27;98422.81;;;28.82;54.03
21760;BME280;11041;50.854;20.580;2022-08-19T09:47:53;98418.97;;;28.88;53.73
21760;BME280;11041;50.854;20.580;2022-08-19T09:50:22;98411.09;;;28.96;53.81
21760;BME280;11041;50.854;20.580;2022-08-19T09:52:51;98403.75;;;28.99;53.02
21760;BME280;11041;50.854;20.580;2022-08-19T09:55:19;98402.06;;;29.01;52.70
21760;BME280;11041;50.854;20.580;2022-08-19T09:57:46;98409.09;;;29.09;52.65
21760;BME280;11041;50.854;20.580;2022-08-19T10:00:13;98405.38;;;29.13;52.22
21760;BME280;11041;50.854;20.580;2022-08-19T10:02:40;98398.84;;;29.16;52.64
21760;BME280;11041;50.854;20.580;2022-08-19T10:05:07;98396.13;;;29.25;52.12
21760;BME280;11041;50.854;20.580;2022-08-19T10:07:52;98386.84;;;29.24;51.33
21760;BME280;11041;50.854;20.580;2022-08-19T10:10:19;98389.22;;;29.26;52.00
21760;BME280;11041;50.854;20.580;2022-08-19T10:12:46;98400.66;;;29.35;51.54
21760;BME280;11041;50.854;20.580;2022-08-19T10:15:14;98391.72;;;29.37;50.61
21760;BME280;11041;50.854;20.580;2022-08-19T10:17:41;98383.22;;;29.37;49.60
21760;BME280;11041;50.854;20.580;2022-08-19T10:20:08;98390.34;;;29.41;49.78
21760;BME280;11041;50.854;20.580;2022-08-19T10:22:35;98383.81;;;29.44;49.49
21760;BME280;11041;50.854;20.580;2022-08-19T10:25:05;98390.13;;;29.48;50.38
21760;BME280;11041;50.854;20.580;2022-08-19T10:27:32;98369.44;;;29.51;49.66
21760;BME280;11041;50.854;20.580;2022-08-19T10:29:58;98386.50;;;29.61;51.24
21760;BME280;11041;50.854;20.580;2022-08-19T10:32:25;98384.59;;;29.70;49.49
21760;BME280;11041;50.854;20.580;2022-08-19T10:34:52;98387.69;;;29.76;49.18
21760;BME280;11041;50.854;20.580;2022-08-19T10:37:19;98379.88;;;29.80;50.09
21760;BME280;11041;50.854;20.580;2022-08-19T10:39:46;98383.59;;;29.90;49.37
21760;BME280;11041;50.854;20.580;2022-08-19T10:42:14;98381.41;;;29.94;49.26
21760;BME280;11041;50.854;20.580;2022-08-19T10:44:42;98378.25;;;30.05;50.02
21760;BME280;11041;50.854;20.580;2022-08-19T10:47:09;98363.16;;;30.08;49.00
21760;BME280;11041;50.854;20.580;2022-08-19T10:49:39;98359.94;;;30.19;48.91
21760;BME280;11041;50.854;20.580;2022-08-19T10:52:27;98358.25;;;30.21;47.29
21760;BME280;11041;50.854;20.580;2022-08-19T10:55:02;98353.94;;;30.29;48.59
21760;BME280;11041;50.854;20.580;2022-08-19T10:57:48;98361.25;;;30.40;49.25
21760;BME280;11041;50.854;20.580;2022-08-19T11:00:15;98361.69;;;30.51;47.85
21760;BME280;11041;50.854;20.580;2022-08-19T11:02:42;98372.63;;;30.62;47.67
21760;BME280;11041;50.854;20.580;2022-08-19T11:05:09;98357.22;;;30.63;46.18
21760;BME280;11041;50.854;20.580;2022-08-19T11:07:39;98358.06;;;30.72;45.98
21760;BME280;11041;50.854;20.580;2022-08-19T11:10:08;98357.22;;;30.85;46.21
21760;BME280;11041;50.854;20.580;2022-08-19T11:12:40;98356.63;;;30.90;46.15
21760;BME280;11041;50.854;20.580;2022-08-19T11:15:08;98358.25;;;31.00;46.11
21760;BME280;11041;50.854;20.580;2022-08-19T11:17:40;98354.81;;;31.05;46.33
21760;BME280;11041;50.854;20.580;2022-08-19T11:20:11;98360.88;;;31.16;46.08
21760;BME280;11041;50.854;20.580;2022-08-19T11:22:39;98340.09;;;31.19;46.34
21760;BME280;11041;50.854;20.580;2022-08-19T11:25:08;98344.91;;;31.32;45.55
21760;BME280;11041;50.854;20.580;2022-08-19T11:27:40;98350.66;;;31.50;44.76
21760;BME280;11041;50.854;20.580;2022-08-19T11:30:13;98343.75;;;31.60;44.81
21760;BME280;11041;50.854;20.580;2022-08-19T11:32:41;98345.06;;;31.69;44.18
21760;BME280;11041;50.854;20.580;2022-08-19T11:35:08;98340.66;;;31.77;42.24
21760;BME280;11041;50.854;20.580;2022-08-19T11:37:52;98337.84;;;31.86;43.10
21760;BME280;11041;50.854;20.580;2022-08-19T11:40:42;98350.50;;;31.94;42.94
21760;BME280;11041;50.854;20.580;2022-08-19T11:43:28;98327.75;;;31.94;42.31
21760;BME280;11041;50.854;20.580;2022-08-19T11:46:08;98324.94;;;32.03;42.31
21760;BME280;11041;50.854;20.580;2022-08-19T11:49:06;98320.84;;;32.04;42.65
21760;BME280;11041;50.854;20.580;2022-08-19T11:51:43;98327.50;;;32.20;42.62
21760;BME280;11041;50.854;20.580;2022-08-19T11:54:11;98336.03;;;32.29;42.46
21760;BME280;11041;50.854;20.580;2022-08-19T11:56:39;98326.06;;;32.34;42.52
21760;BME280;11041;50.854;20.580;2022-08-19T11:59:06;98334.94;;;32.45;42.12
21760;BME280;11041;50.854;20.580;2022-08-19T12:01:34;98348.69;;;32.56;41.37
21760;BME280;11041;50.854;20.580;2022-08-19T12:04:00;98333.19;;;32.57;40.66
21760;BME280;11041;50.854;20.580;2022-08-19T12:06:30;98342.34;;;32.70;40.91
21760;BME280;11041;50.854;20.580;2022-08-19T12:09:04;98335.88;;;32.79;40.00
21760;BME280;11041;50.854;20.580;2022-08-19T12:11:38;98327.16;;;32.82;39.34
21760;BME280;11041;50.854;20.580;2022-08-19T12:14:05;98331.44;;;32.87;39.77
21760;BME280;11041;50.854;20.580;2022-08-19T12:16:32;98323.84;;;32.93;39.64
21760;BME280;11041;50.854;20.580;2022-08-19T12:19:02;98319.72;;;33.03;39.15
21760;BME280;11041;50.854;20.580;2022-08-19T12:21:34;98312.28;;;33.06;40.14
21760;BME280;11041;50.854;20.580;2022-08-19T12:24:06;98324.28;;;33.10;39.55
21760;BME280;11041;50.854;20.580;2022-08-19T12:26:34;98308.16;;;33.07;38.51
21760;BME280;11041;50.854;20.580;2022-08-19T12:29:00;98301.69;;;33.06;39.60
21760;BME280;11041;50.854;20.580;2022-08-19T12:31:28;98291.88;;;33.07;38.78
21760;BME280;11041;50.854;20.580;2022-08-19T12:33:55;98294.03;;;33.22;37.67
21760;BME280;11041;50.854;20.580;2022-08-19T12:36:23;98281.19;;;33.26;39.45
21760;BME280;11041;50.854;20.580;2022-08-19T12:38:51;98291.88;;;33.41;39.44
21760;BME280;11041;50.854;20.580;2022-08-19T12:41:20;98281.88;;;33.45;38.99
21760;BME280;11041;50.854;20.580;2022-08-19T12:43:48;98272.97;;;33.62;39.38
21760;BME280;11041;50.854;20.580;2022-08-19T12:46:19;98286.97;;;33.74;38.42
21760;BME280;11041;50.854;20.580;2022-08-19T12:48:46;98288.81;;;33.87;37.84
21760;BME280;11041;50.854;20.580;2022-08-19T12:51:17;98288.25;;;33.98;38.51
21760;BME280;11041;50.854;20.580;2022-08-19T12:53:46;98302.88;;;34.14;37.08
21760;BME280;11041;50.854;20.580;2022-08-19T12:56:13;98300.44;;;34.22;36.60
21760;BME280;11041;50.854;20.580;2022-08-19T12:58:42;98302.22;;;34.34;36.63
21760;BME280;11041;50.854;20.580;2022-08-19T13:01:12;98266.94;;;34.32;36.41
21760;BME280;11041;50.854;20.580;2022-08-19T13:03:40;98288.81;;;34.50;36.09
21760;BME280;11041;50.854;20.580;2022-08-19T13:06:08;98287.81;;;34.53;35.16
21760;BME280;11041;50.854;20.580;2022-08-19T13:08:36;98254.75;;;34.46;36.09
21760;BME280;11041;50.854;20.580;2022-08-19T13:11:15;98279.34;;;34.58;35.44
21760;BME280;11041;50.854;20.580;2022-08-19T13:13:47;98275.56;;;34.62;36.02